createdAt,value
2019-01-03T00:01:01.544Z,15.80
2019-01-03T00:03:47.798Z,10.27
2019-01-03T00:06:23.439Z,11.40
2019-01-03T00:09:05.463Z,14.97
2019-01-03T00:11:35.391Z,11.10
2019-01-03T00:14:21.661Z,11.73
2019-01-03T00:17:09.984Z,17.77
2019-01-03T00:19:42.665Z,12.27
2019-01-03T00:22:24.605Z,10.80
2019-01-03T00:24:57.227Z,12.00
2019-01-03T00:27:29.853Z,11.43
2019-01-03T00:30:08.779Z,11.20
2019-01-03T00:32:56.880Z,13.33
2019-01-03T00:35:42.197Z,10.63
2019-01-03T00:38:21.115Z,11.33
2019-01-03T00:40:51.192Z,11.13
2019-01-03T00:43:36.258Z,11.87
2019-01-03T00:46:06.219Z,11.20
2019-01-03T00:48:36.246Z,14.80
2019-01-03T00:51:06.181Z,10.90
2019-01-03T00:53:54.225Z,13.63
2019-01-03T00:56:26.843Z,10.43
2019-01-03T00:58:56.855Z,7.00
2019-01-03T01:01:32.855Z,16.43
2019-01-03T01:04:21.188Z,9.73
2019-01-03T01:07:00.115Z,16.40
2019-01-03T01:09:32.802Z,11.03
2019-01-03T01:12:08.799Z,9.97
2019-01-03T01:14:41.707Z,9.53
2019-01-03T01:17:20.772Z,10.60
2019-01-03T01:20:06.055Z,11.27
2019-01-03T01:22:39.015Z,11.37
2019-01-03T01:25:21.248Z,11.03
2019-01-03T01:28:06.079Z,9.03
2019-01-03T01:30:47.889Z,11.47
2019-01-03T01:36:45.261Z,11.83
2019-01-03T01:39:31.603Z,12.73
2019-01-03T01:42:17.933Z,13.33
2019-01-03T01:44:53.590Z,11.53
2019-01-03T01:47:23.615Z,10.70
2019-01-03T01:50:02.805Z,10.17
2019-01-03T01:52:35.871Z,9.77
2019-01-03T01:55:14.981Z,14.37
2019-01-03T01:57:45.011Z,8.20
2019-01-03T02:00:14.927Z,9.93
2019-01-03T02:02:44.923Z,9.73
2019-01-03T02:05:17.721Z,9.10
2019-01-03T02:07:56.485Z,7.47
2019-01-03T02:10:32.251Z,8.83
2019-01-03T02:13:02.253Z,8.17
2019-01-03T02:15:41.099Z,5.60
2019-01-03T02:18:16.739Z,6.73
2019-01-03T02:21:01.731Z,7.43
2019-01-03T02:23:31.652Z,8.37
2019-01-03T02:26:07.363Z,8.60
2019-01-03T02:28:46.375Z,6.77
2019-01-03T02:31:31.579Z,6.20
2019-01-03T02:34:10.521Z,6.83
2019-01-03T02:36:58.552Z,4.83
2019-01-03T02:39:40.323Z,6.87
2019-01-03T02:42:16.347Z,5.57
2019-01-03T02:45:02.517Z,5.07
2019-01-03T02:47:47.560Z,7.27
2019-01-03T02:50:20.282Z,6.63
2019-01-03T02:53:06.419Z,3.47
2019-01-03T02:55:36.349Z,3.83
2019-01-03T02:58:15.063Z,7.27
2019-01-03T03:00:53.855Z,7.60
2019-01-03T03:03:26.927Z,4.40
2019-01-03T03:05:56.923Z,3.97
2019-01-03T03:08:32.701Z,4.93
2019-01-03T03:11:11.523Z,6.00
2019-01-03T03:13:50.715Z,5.37
2019-01-03T03:16:35.809Z,7.40
2019-01-03T03:19:11.727Z,5.53
2019-01-03T03:21:41.967Z,4.10
2019-01-03T03:24:11.890Z,5.23
2019-01-03T03:26:44.404Z,3.67
2019-01-03T03:29:22.976Z,4.73
2019-01-03T03:31:55.907Z,3.83
2019-01-03T03:34:34.696Z,5.40
2019-01-03T03:37:22.824Z,4.33
2019-01-03T03:39:52.761Z,5.80
2019-01-03T03:42:38.799Z,5.27
2019-01-03T03:45:09.294Z,5.47
2019-01-03T03:47:51.408Z,5.43
2019-01-03T03:50:24.347Z,10.47
2019-01-03T03:52:57.324Z,10.57
2019-01-03T03:55:43.651Z,9.53
2019-01-03T03:58:28.926Z,10.23
2019-01-03T04:01:10.799Z,11.00
2019-01-03T04:03:43.478Z,8.33
2019-01-03T04:06:25.452Z,8.93
2019-01-03T04:08:58.202Z,10.30
2019-01-03T04:11:43.191Z,10.93
2019-01-03T04:14:16.456Z,11.60
2019-01-03T04:16:55.561Z,7.70
2019-01-03T04:19:34.817Z,5.80
2019-01-03T04:22:07.516Z,5.00
2019-01-03T04:24:54.193Z,16.47
2019-01-03T04:27:39.363Z,15.33
2019-01-03T04:30:25.504Z,10.33
2019-01-03T04:33:01.682Z,8.47
2019-01-03T04:35:37.659Z,7.10
2019-01-03T04:38:07.626Z,5.00
2019-01-03T04:40:37.653Z,6.07
2019-01-03T04:43:13.909Z,10.53
2019-01-03T04:46:00.363Z,6.23
2019-01-03T04:48:30.395Z,11.70
2019-01-03T04:51:16.574Z,3.97
2019-01-03T04:53:55.792Z,10.70
2019-01-03T04:56:37.935Z,7.57
2019-01-03T04:59:07.869Z,5.23
2019-01-03T05:02:02.033Z,7.77
2019-01-03T05:04:48.313Z,5.93
2019-01-03T05:07:18.264Z,8.23
2019-01-03T05:09:57.248Z,7.90
2019-01-03T05:12:27.315Z,7.53
2019-01-03T05:15:13.695Z,5.43
2019-01-03T05:18:00.289Z,5.40
2019-01-03T05:20:46.669Z,5.17
2019-01-03T05:23:31.812Z,6.80
2019-01-03T05:26:17.963Z,6.50
2019-01-03T05:29:04.214Z,5.83
2019-01-03T05:31:40.346Z,7.30
2019-01-03T05:34:10.596Z,6.50
2019-01-03T05:36:46.206Z,5.20
2019-01-03T05:39:16.147Z,7.03
2019-01-03T05:41:46.076Z,9.37
2019-01-03T05:44:24.902Z,4.37
2019-01-03T05:47:11.312Z,6.30
2019-01-03T05:49:57.930Z,5.30
2019-01-03T05:52:44.081Z,5.43
2019-01-03T05:55:14.139Z,7.20
2019-01-03T05:58:00.316Z,5.73
2019-01-03T06:00:30.268Z,4.47
2019-01-03T06:03:00.272Z,6.87
2019-01-03T06:05:36.349Z,6.20
2019-01-03T06:08:08.949Z,11.13
2019-01-03T06:10:38.874Z,8.13
2019-01-03T06:13:33.986Z,9.37
2019-01-03T06:16:12.824Z,6.00
2019-01-03T06:18:48.415Z,9.47
2019-01-03T06:21:24.258Z,12.47
2019-01-03T06:24:06.897Z,6.57
2019-01-03T06:26:52.207Z,6.03
2019-01-03T06:29:31.453Z,5.83
2019-01-03T06:32:01.539Z,10.10
2019-01-03T06:34:46.782Z,6.03
2019-01-03T06:37:16.765Z,5.67
2019-01-03T06:40:03.089Z,7.13
2019-01-03T06:42:38.781Z,9.40
2019-01-03T06:45:08.784Z,11.80
2019-01-03T06:47:44.593Z,9.43
2019-01-03T06:50:17.654Z,15.60
2019-01-03T06:52:53.660Z,11.73
2019-01-03T06:55:23.699Z,10.87
2019-01-03T06:58:11.779Z,7.73
2019-01-03T07:00:41.732Z,9.13
2019-01-03T07:03:27.694Z,9.17
2019-01-03T07:06:12.951Z,9.37
2019-01-03T07:08:45.841Z,13.63
2019-01-03T07:11:27.795Z,11.13
2019-01-03T07:14:03.451Z,10.63
2019-01-03T07:16:45.497Z,6.93
2019-01-03T07:19:18.221Z,9.40
2019-01-03T07:21:48.213Z,13.80
2019-01-03T07:24:33.533Z,8.00
2019-01-03T07:29:58.125Z,10.00
2019-01-03T07:32:43.188Z,8.53
2019-01-03T07:35:29.517Z,7.13
2019-01-03T07:38:08.231Z,9.50
2019-01-03T07:40:40.717Z,10.87
2019-01-03T07:43:27.127Z,9.23
2019-01-03T07:46:03.085Z,8.20
2019-01-03T07:48:39.347Z,9.00
2019-01-03T07:51:25.615Z,6.77
2019-01-03T07:53:55.543Z,7.43
2019-01-03T07:56:41.969Z,8.30
2019-01-03T07:59:18.106Z,8.07
2019-01-03T08:01:48.146Z,6.20
2019-01-03T08:04:34.511Z,9.00
2019-01-03T08:07:10.523Z,13.13
2019-01-03T08:09:56.977Z,6.70
2019-01-03T08:12:29.977Z,7.57
2019-01-03T08:15:16.139Z,10.27
2019-01-03T08:18:01.388Z,11.30
2019-01-03T08:20:47.231Z,11.10
2019-01-03T08:23:33.377Z,12.07
2019-01-03T08:26:20.031Z,14.10
2019-01-03T08:28:50.159Z,11.83
2019-01-03T08:31:32.228Z,13.30
2019-01-03T08:34:18.307Z,10.50
2019-01-03T08:37:04.739Z,12.03
2019-01-03T08:39:34.691Z,11.27
2019-01-03T08:42:21.153Z,10.63
2019-01-03T08:45:03.219Z,11.03
2019-01-03T08:47:48.239Z,11.67
2019-01-03T08:50:33.429Z,13.43
2019-01-03T08:53:06.126Z,15.30
2019-01-03T08:55:38.628Z,10.37
2019-01-03T08:58:11.293Z,14.37
2019-01-03T09:00:57.527Z,16.30
2019-01-03T09:03:27.528Z,10.77
2019-01-03T09:06:12.857Z,15.57
2019-01-03T09:08:48.784Z,11.83
2019-01-03T09:11:34.817Z,11.40
2019-01-03T09:14:07.465Z,15.03
2019-01-03T09:16:53.516Z,14.40
2019-01-03T09:19:40.135Z,13.60
2019-01-03T09:22:16.089Z,19.50
2019-01-03T09:24:46.057Z,13.63
2019-01-03T09:27:18.769Z,10.67
2019-01-03T09:29:48.705Z,11.30
2019-01-03T09:32:30.641Z,10.00
2019-01-03T09:35:16.963Z,10.97
2019-01-03T09:38:01.993Z,11.67
2019-01-03T09:40:48.315Z,9.60
2019-01-03T09:43:21.166Z,6.80
2019-01-03T09:45:49.515Z,7.00
2019-01-03T09:48:17.913Z,10.07
2019-01-03T09:51:05.717Z,8.80
2019-01-03T09:53:34.137Z,7.30
2019-01-03T09:56:02.471Z,7.77
2019-01-03T09:58:30.858Z,8.37
2019-01-03T10:00:59.243Z,7.07
2019-01-03T10:03:27.605Z,12.00
2019-01-03T10:05:55.909Z,9.43
2019-01-03T10:08:24.189Z,6.97
2019-01-03T10:10:52.479Z,6.63
2019-01-03T10:13:20.783Z,8.93
2019-01-03T10:15:49.065Z,10.33
2019-01-03T10:18:17.369Z,6.93
2019-01-03T10:20:45.862Z,6.90
2019-01-03T10:23:14.229Z,8.13
2019-01-03T10:25:42.515Z,10.27
2019-01-03T10:28:10.830Z,5.10
2019-01-03T10:30:39.268Z,6.67
2019-01-03T10:33:07.573Z,7.67
2019-01-03T10:35:35.867Z,10.13
2019-01-03T10:38:04.142Z,8.83
2019-01-03T10:40:32.499Z,6.87
2019-01-03T10:43:00.771Z,7.33
2019-01-03T10:45:29.143Z,9.40
2019-01-03T10:47:57.498Z,13.13
2019-01-03T10:50:26.048Z,11.77
2019-01-03T10:52:54.324Z,8.03
2019-01-03T10:55:22.617Z,7.60
2019-01-03T10:57:50.900Z,6.57
2019-01-03T11:00:19.329Z,10.67
2019-01-03T11:02:47.685Z,9.73
2019-01-03T11:05:15.989Z,15.07
2019-01-03T11:07:44.545Z,12.60
2019-01-03T11:10:12.909Z,9.43
2019-01-03T11:12:41.257Z,5.87
2019-01-03T11:15:09.628Z,5.10
2019-01-03T11:17:37.981Z,7.47
2019-01-03T11:20:06.355Z,8.17
2019-01-03T11:22:34.621Z,5.97
2019-01-03T11:25:02.930Z,6.60
2019-01-03T11:27:31.367Z,7.20
2019-01-03T11:29:59.740Z,6.23
2019-01-03T11:32:28.200Z,7.10
2019-01-03T11:34:56.737Z,8.37
2019-01-03T11:37:25.105Z,7.30
2019-01-03T11:39:53.724Z,5.50
2019-01-03T11:42:22.116Z,5.07
2019-01-03T11:44:50.603Z,6.37
2019-01-03T11:47:18.957Z,3.57
2019-01-03T11:49:47.441Z,4.83
2019-01-03T11:52:15.866Z,6.07
2019-01-03T11:54:44.263Z,3.93
2019-01-03T11:57:12.648Z,5.40
2019-01-03T11:59:40.943Z,6.07
2019-01-03T12:02:09.322Z,4.93
2019-01-03T12:04:37.700Z,7.47
2019-01-03T12:07:06.061Z,6.77
2019-01-03T12:09:34.346Z,5.23
2019-01-03T12:12:03.125Z,4.00
2019-01-03T12:14:31.673Z,8.37
2019-01-03T12:17:00.209Z,7.73
2019-01-03T12:19:28.762Z,6.77
2019-01-03T12:21:57.118Z,5.80
2019-01-03T12:24:30.595Z,5.37
2019-01-03T12:26:55.834Z,6.70
2019-01-03T12:29:24.172Z,4.87
2019-01-03T12:31:52.461Z,4.50
2019-01-03T12:34:20.827Z,6.53
2019-01-03T12:36:49.281Z,6.53
2019-01-03T12:39:17.656Z,3.27
2019-01-03T12:41:46.009Z,5.83
2019-01-03T12:44:14.303Z,5.43
2019-01-03T12:46:42.740Z,7.23
2019-01-03T12:49:11.093Z,3.90
2019-01-03T12:51:39.462Z,3.63
2019-01-03T12:54:07.873Z,4.43
2019-01-03T12:56:36.221Z,8.13
2019-01-03T12:59:04.716Z,6.07
2019-01-03T13:01:33.074Z,6.57
2019-01-03T13:04:01.512Z,3.00
2019-01-03T13:06:29.785Z,4.20
2019-01-03T13:08:58.306Z,3.37
2019-01-03T13:11:26.927Z,4.87
2019-01-03T13:13:55.512Z,3.37
2019-01-03T13:16:23.922Z,5.97
2019-01-03T13:18:52.236Z,2.80
2019-01-03T13:21:20.524Z,5.53
2019-01-03T13:23:49.100Z,4.67
2019-01-03T13:26:17.585Z,3.53
2019-01-03T13:28:46.060Z,4.57
2019-01-03T13:31:14.333Z,4.50
2019-01-03T13:33:42.614Z,4.73
2019-01-03T13:36:10.951Z,5.60
2019-01-03T13:38:40.357Z,6.87
2019-01-03T13:41:08.773Z,6.43
2019-01-03T13:43:37.074Z,4.17
2019-01-03T13:46:05.437Z,5.60
2019-01-03T13:48:33.802Z,8.60
2019-01-03T13:51:02.155Z,4.70
2019-01-03T13:53:30.558Z,5.97
2019-01-03T13:55:58.836Z,7.10
2019-01-03T13:58:27.140Z,6.27
2019-01-03T14:00:55.506Z,7.47
2019-01-03T14:03:23.887Z,5.93
2019-01-03T14:05:52.377Z,3.63
2019-01-03T14:08:20.742Z,5.20
2019-01-03T14:10:49.087Z,3.77
2019-01-03T14:13:17.458Z,4.33
2019-01-03T14:15:45.846Z,4.40
2019-01-03T14:18:14.506Z,4.60
2019-01-03T14:20:43.096Z,5.17
2019-01-03T14:23:11.524Z,5.27
2019-01-03T14:25:40.006Z,5.30
2019-01-03T14:28:08.454Z,9.43
2019-01-03T14:30:36.994Z,4.07
2019-01-03T14:33:05.672Z,6.00
2019-01-03T14:35:34.230Z,3.87
2019-01-03T14:38:02.702Z,5.53
2019-01-03T14:40:31.168Z,2.73
2019-01-03T14:42:59.464Z,3.67
2019-01-03T14:45:28.246Z,3.53
2019-01-03T14:47:57.018Z,4.00
2019-01-03T14:50:25.442Z,3.90
2019-01-03T14:52:54.050Z,5.37
2019-01-03T14:55:22.354Z,5.50
2019-01-03T14:57:50.844Z,8.10
2019-01-03T15:00:19.215Z,5.97
2019-01-03T15:02:48.805Z,10.40
2019-01-03T15:05:17.190Z,17.20
2019-01-03T15:07:45.553Z,9.03
2019-01-03T15:10:13.889Z,7.80
2019-01-03T15:12:42.263Z,7.83
2019-01-03T15:15:10.588Z,9.17
2019-01-03T15:17:39.113Z,5.40
2019-01-03T15:20:10.343Z,6.63
2019-01-03T15:22:38.841Z,6.63
2019-01-03T15:25:07.334Z,6.43
2019-01-03T15:27:35.685Z,5.30
2019-01-03T15:30:06.706Z,5.87
2019-01-03T15:32:35.067Z,5.37
2019-01-03T15:35:03.428Z,4.33
2019-01-03T15:37:33.437Z,6.07
2019-01-03T15:40:05.525Z,5.93
2019-01-03T15:42:33.800Z,5.53
2019-01-03T15:47:49.179Z,2.93
2019-01-03T15:50:17.594Z,3.47
2019-01-03T15:52:46.685Z,7.77
2019-01-03T15:55:15.222Z,9.23
2019-01-03T15:57:43.502Z,3.37
2019-01-03T16:00:12.237Z,6.90
2019-01-03T16:02:40.524Z,14.77
2019-01-03T16:05:08.886Z,12.60
2019-01-03T16:07:37.179Z,23.10
2019-01-03T16:10:06.514Z,15.83
2019-01-03T16:12:34.850Z,8.70
2019-01-03T16:15:03.315Z,7.53
2019-01-03T16:17:33.300Z,6.17
2019-01-03T16:20:01.613Z,4.33
2019-01-03T16:22:31.600Z,7.40
2019-01-03T16:25:00.167Z,6.27
2019-01-03T16:27:28.544Z,5.27
2019-01-03T16:29:56.940Z,6.27
2019-01-03T16:32:25.213Z,4.70
2019-01-03T16:34:53.670Z,5.97
2019-01-03T16:37:21.950Z,7.13
2019-01-03T16:39:50.308Z,5.17
2019-01-03T16:42:18.652Z,5.77
2019-01-03T16:44:47.042Z,6.67
2019-01-03T16:47:15.402Z,7.10
2019-01-03T16:49:43.805Z,9.33
2019-01-03T16:52:12.143Z,9.83
2019-01-03T16:54:40.458Z,10.70
2019-01-03T16:57:08.825Z,10.63
2019-01-03T16:59:37.214Z,15.03
2019-01-03T17:02:05.562Z,20.40
2019-01-03T17:04:33.951Z,18.87
2019-01-03T17:07:02.862Z,20.30
2019-01-03T17:09:31.147Z,17.73
2019-01-03T17:11:59.900Z,15.57
2019-01-03T17:14:28.305Z,17.23
2019-01-03T17:16:57.131Z,13.87
2019-01-03T17:19:25.520Z,20.53
2019-01-03T17:21:53.892Z,15.60
2019-01-03T17:24:22.227Z,14.27
2019-01-03T17:26:50.527Z,9.73
2019-01-03T17:29:18.819Z,8.87
2019-01-03T17:31:47.131Z,9.43
2019-01-03T17:34:15.521Z,11.73
2019-01-03T17:36:43.889Z,11.30
2019-01-03T17:39:12.193Z,10.40
2019-01-03T17:41:40.558Z,10.60
2019-01-03T17:44:08.842Z,12.83
2019-01-03T17:46:37.157Z,15.80
2019-01-03T17:49:05.530Z,11.23
2019-01-03T17:51:33.810Z,10.63
2019-01-03T17:54:02.108Z,12.23
2019-01-03T17:56:30.482Z,10.07
2019-01-03T17:58:58.776Z,12.73
2019-01-03T18:01:27.054Z,37.80
2019-01-03T18:03:55.367Z,40.60
2019-01-03T18:06:23.713Z,24.00
2019-01-03T18:08:52.028Z,30.67
2019-01-03T18:11:20.324Z,27.50
2019-01-03T18:13:48.728Z,21.70
2019-01-03T18:16:17.023Z,16.70
2019-01-03T18:18:45.399Z,17.83
2019-01-03T18:21:13.859Z,14.43
2019-01-03T18:23:42.335Z,10.50
2019-01-03T18:26:10.687Z,10.40
2019-01-03T18:28:39.011Z,11.60
2019-01-03T18:31:07.401Z,12.50
2019-01-03T18:33:35.825Z,13.00
2019-01-03T18:36:04.187Z,13.40
2019-01-03T18:38:32.465Z,11.00
2019-01-03T18:41:00.772Z,11.93
2019-01-03T18:43:29.060Z,11.37
2019-01-03T18:45:57.359Z,12.30
2019-01-03T18:48:25.653Z,11.83
2019-01-03T18:50:54.081Z,12.40
2019-01-03T18:53:22.381Z,12.07
2019-01-03T18:55:50.863Z,12.40
2019-01-03T18:58:19.243Z,11.67
2019-01-03T19:00:47.536Z,14.17
2019-01-03T19:03:15.905Z,12.50
2019-01-03T19:05:44.444Z,13.67
2019-01-03T19:08:12.885Z,14.90
2019-01-03T19:10:41.213Z,16.10
2019-01-03T19:13:09.591Z,15.37
2019-01-03T19:15:37.971Z,21.37
2019-01-03T19:18:06.445Z,21.80
2019-01-03T19:20:34.805Z,23.43
2019-01-03T19:23:03.161Z,27.97
2019-01-03T19:25:31.463Z,23.10
2019-01-03T19:27:59.819Z,24.63
2019-01-03T19:30:28.132Z,33.60
2019-01-03T19:32:56.451Z,24.97
2019-01-03T19:35:24.816Z,25.17
2019-01-03T19:37:53.134Z,27.03
2019-01-03T19:40:21.441Z,26.47
2019-01-03T19:42:49.750Z,28.10
2019-01-03T19:45:18.140Z,24.60
2019-01-03T19:47:46.542Z,21.57
2019-01-03T19:50:16.940Z,21.90
2019-01-03T19:52:45.318Z,20.93
2019-01-03T19:55:13.618Z,21.53
2019-01-03T19:57:42.000Z,18.30
2019-01-03T20:00:13.006Z,17.97
2019-01-03T20:02:41.506Z,22.47
2019-01-03T20:05:09.882Z,19.23
2019-01-03T20:07:38.984Z,21.63
2019-01-03T20:10:10.136Z,19.93
2019-01-03T20:12:38.502Z,20.80
2019-01-03T20:15:09.964Z,19.27
2019-01-03T20:17:38.298Z,18.33
2019-01-03T20:20:08.206Z,16.77
2019-01-03T20:22:36.500Z,19.63
2019-01-03T20:25:06.355Z,15.80
2019-01-03T20:27:34.762Z,20.43
2019-01-03T20:30:03.222Z,18.97
2019-01-03T20:32:31.561Z,18.77
2019-01-03T20:34:59.901Z,21.63
2019-01-03T20:37:28.318Z,20.03
2019-01-03T20:39:56.705Z,23.67
2019-01-03T20:42:25.063Z,21.77
2019-01-03T20:44:53.353Z,22.83
2019-01-03T20:47:21.771Z,23.53
2019-01-03T20:49:50.133Z,26.57
2019-01-03T20:52:18.513Z,28.77
2019-01-03T20:54:46.986Z,23.73
2019-01-03T20:57:15.351Z,28.60
2019-01-03T20:59:43.662Z,25.17
2019-01-03T21:02:15.448Z,25.33
2019-01-03T21:04:43.825Z,31.57
2019-01-03T21:07:12.196Z,30.27
2019-01-03T21:09:40.629Z,34.20
2019-01-03T21:12:08.992Z,27.70
2019-01-03T21:14:37.337Z,23.17
2019-01-03T21:17:05.756Z,24.03
2019-01-03T21:19:34.158Z,23.97
2019-01-03T21:22:02.709Z,20.23
2019-01-03T21:24:31.062Z,24.33
2019-01-03T21:26:59.446Z,24.80
2019-01-03T21:29:27.808Z,20.57
2019-01-03T21:31:56.120Z,23.03
2019-01-03T21:34:24.438Z,20.40
2019-01-03T21:36:53.132Z,21.97
2019-01-03T21:39:50.951Z,19.57
2019-01-03T21:41:58.427Z,18.10
2019-01-03T21:44:27.110Z,26.47
2019-01-03T21:46:55.816Z,39.43
2019-01-03T21:49:24.475Z,51.17
2019-01-03T21:51:53.056Z,38.83
2019-01-03T21:54:21.418Z,39.93
2019-01-03T21:56:49.713Z,38.20
2019-01-03T21:59:18.089Z,32.97
2019-01-03T22:01:46.376Z,25.90
2019-01-03T22:04:14.668Z,22.17
2019-01-03T22:06:42.991Z,21.20
2019-01-03T22:09:11.426Z,22.00
2019-01-03T22:11:39.747Z,19.03
2019-01-03T22:14:08.063Z,22.27
2019-01-03T22:16:36.503Z,16.67
2019-01-03T22:19:05.034Z,22.20
2019-01-03T22:21:33.529Z,18.80
2019-01-03T22:24:01.910Z,18.20
2019-01-03T22:26:30.370Z,20.77
2019-01-03T22:28:58.907Z,19.97
2019-01-03T22:31:27.329Z,17.67
2019-01-03T22:33:55.775Z,18.37
2019-01-03T22:36:24.098Z,15.37
2019-01-03T22:38:52.462Z,17.37
2019-01-03T22:41:20.845Z,16.40
2019-01-03T22:43:49.143Z,18.33
2019-01-03T22:46:17.692Z,15.23
2019-01-03T22:48:46.055Z,15.67
2019-01-03T22:51:19.966Z,18.20
2019-01-03T22:53:44.411Z,15.20
2019-01-03T22:56:12.782Z,15.23
2019-01-03T22:58:41.104Z,19.13
2019-01-03T23:01:09.940Z,16.23
2019-01-03T23:03:38.423Z,15.20
2019-01-03T23:06:06.957Z,12.50
2019-01-03T23:08:35.397Z,15.40
2019-01-03T23:11:03.692Z,18.17
2019-01-03T23:13:31.994Z,13.13
2019-01-03T23:16:00.355Z,13.87
2019-01-03T23:18:31.482Z,15.83
2019-01-03T23:20:59.035Z,14.00
2019-01-03T23:23:27.336Z,14.47
2019-01-03T23:25:55.722Z,15.40
2019-01-03T23:28:24.031Z,18.50
2019-01-03T23:30:52.708Z,11.27
2019-01-03T23:33:21.051Z,14.53
2019-01-03T23:35:49.428Z,13.40
2019-01-03T23:38:17.784Z,14.37
2019-01-03T23:40:48.886Z,13.00
2019-01-03T23:43:17.278Z,12.60
2019-01-03T23:45:45.602Z,12.10
2019-01-03T23:48:14.011Z,13.27
2019-01-03T23:50:42.396Z,12.57
2019-01-03T23:53:10.759Z,11.17
2019-01-03T23:55:39.556Z,12.30
2019-01-03T23:58:07.923Z,13.17
